賞金稼ぎシリーズ

BOUNTY HUNTERS
シリーズ

7月7日~7月29日

総額$50M GTD

夏最大のBounty Seriesで
最大のBounty

Mystery Bounty メインイベント

賞金総額$4MGTD。
$100KBountyが10個当たるチャンス

$1MBountyリーダーボード

毎日$40K
KOすればするほど賞金が増える!

ただのビジネスで、個人的なことではない

ハイライトイベント

$108 Mystery BountyMain Event、 $4M GTD


過去最高10個の $100K Mystery Bounties イベント

$25 Mystery Bounty Mini Main, $2M GTD


破格のプライズを獲得できる

$50 Global MILLION$ Bounty Edition, $1M GTD

世界で最も人気のあるトーナメントのバウンティスペシャルエディション

Special Bounty Hunter Series Editions(日曜日)

全ての最大バウンティトーナメントは、Bounty King リーダーボードに反映されます

$1M Bounty Kingリーダーボード

最多ノックアウトで Bounty King になろう。
毎日$40K以上の賞金!

Bounty Kings

07/07
Gandalfsen$1,500
07/08
Markus Prinz$1,500
07/09
Survivor39$1,500
07/10
Markus Prinz$1,500
07/11
Markus Prinz$1,500
07/12
Markus Prinz$1,500
07/13
Zhenghao Yan_ $1,500
07/14
Markus Prinz$1,500
07/15
Markus Prinz$1,500
07/16
Zhenghao Yan_$1,500
07/17
Markus Prinz$1,500
07/18
Ronald_Reagan$1,500
07/19
Dio Cane$1,500
07/20
Markus Prinz$1,500
07/21
Markus Prinz$1,500
07/22
Zhenghao Yan_$1,500
07/23
TripM_DoubleD$1,500
07/24
Playername$1,500
07/25
Playername$1,500
07/26
Playername$1,500
07/27
Playername$1,500
07/28
Playername$1,500
07/29
Playername$1,500
Playername

シリーズスケジュール

DATE DAY UTC EVENT BUY-IN GTD
7月7日 12:30 $215 Sunday Bounty Blast-Off $215 $35,000
7月7日 12:30 $25 Sunday Bounty Blast-Off $25 $100,000
7月7日 13:30 $10.80 Sunday Bounty Seven-Max $10.80 $50,000
7月7日 13:30 $108 Sunday Bounty Seven-Max $108 $70,000
7月7日 14:05 $10 Speed Racer POWER HOUR [10 BB] $10 $12,500
7月7日 14:15 $25 Speed Racer POWER HOUR [10 BB] $25 $12,500
7月7日 14:25 $50 Speed Racer POWER HOUR [10 BB] $50 $12,500
7月7日 14:30 $840 Sunday Bounty Warm-Up HR $840 $75,000
7月7日 14:30 $88 Sunday Bounty Warm-Up $88 $175,000
7月7日 14:35 $100 Speed Racer POWER HOUR [10 BB] $100 $10,000
7月7日 14:45 $200 Speed Racer POWER HOUR [10 BB] $200 $12,500
7月7日 15:30 $44 Sunday Bounty Forty Stack $44 $200,000
7月7日 16:30 $525 Bounty Hunters HR Main Event, $1M GTD $525 $1,000,000
7月7日 16:30 $54 Bounty Hunters Sunday Main Event $54 $500,000
7月7日 17:30 $215 Sunday Bounty Big Game $215 $350,000
7月7日 17:30 $21.60 Sunday Bounty Big Game $21.60 $200,000
7月7日 17:40 215ドル 日曜オマホリック・ビッグゲーム $215 $50,000
7月7日 19:00 1,050ドル・サンデーHRメインイベント【バウンティ編 $1,050 $300,000
7月7日 19:30 320ドル GGMマスターズ バウンティ スペシャル・エディション $320 $400,000
7月7日 19:30 32ドル 日曜賞金王 $32 $175,000
7月7日 19:40 1050ドル 日曜オマホリック賞金HR $1,050 $50,000
7月7日 19:40 150ドル サンデー・オマホリック・バウンティー・メイン $150 $100,000
7月7日 20:00 108ドル・サンデー・ショーダウン [ミステリー・バウンティ] $108 $400,000
7月7日 20:00 15ドル ミニ対決 [謎の懸賞金] $15 $250,000
7月7日 21:00 1050ドル サンデーHEATER HR 【賞金ターボ $1,050 $75,000
7月7日 21:00 215ドルサンデーHEATER【賞金ターボ $215 $125,000
7月7日 21:00 25ドル サンデーミニHEATER 【賞金ターボ $25 $100,000
7月7日 22:30 77ドル ラッキーセブンズ【賞金ターボ $77 $125,000
7月7日 23:30 215ドル サンデー・ラスト・コール 【バウンティ・ハイパー $215 $60,000
7月8日 0:00 88ドル ミッドナイト・マッドネス [バウンティ・ハイパー] $88 $40,000
7月8日 1:05 $10 Speed Racer POWER HOUR [10 BB] $10 $5,000
7月8日 1:15 $25 Speed Racer POWER HOUR [10 BB] $25 $7,000
7月8日 1:25 $50 Speed Racer POWER HOUR [10 BB] $50 $6,000
7月8日 1:35 $100 Speed Racer POWER HOUR [10 BB] $100 $7,000
7月8日 1:45 $200 Speed Racer POWER HOUR [10 BB] $200 $7,000
7月8日 12:30 25ドル・バウンティ・ブラストオフ $25 $50,000
7月8日 13:30 $10.80 マンデー・ハングオーバー [レベル可変] $10.80 $30,000
7月8日 14:05 $10 Speed Racer POWER HOUR [10 BB] $10 $12,500
7月8日 14:15 $25 Speed Racer POWER HOUR [10 BB] $25 $12,500
7月8日 14:25 $50 Speed Racer POWER HOUR [10 BB] $50 $12,500
7月8日 14:30 88ドル バウンティ・ウォームアップ $88 $60,000
7月8日 14:35 $100 Speed Racer POWER HOUR [10 BB] $100 $10,000
7月8日 14:45 $200 Speed Racer POWER HOUR [10 BB] $200 $12,500
7月8日 15:30 44ドル バウンティ・フォーティ・スタック $44 $80,000
7月8日 16:30 525ドル 賞金稼ぎHR【6-MAX $525 $300,000
7月8日 16:30 54ドル賞金稼ぎデイリー・メイン[6マックス] $54 $250,000
7月8日 17:30 賞金総額215ドルのビッグゲーム $215 $150,000
7月8日 17:30 25ドル バウンティ・ビッグゲーム $25 $100,000
7月8日 18:00 1050ドルのマンデー・モンスター・スタックHR【懸賞金版 $1,050 $200,000
7月8日 18:00 150ドル・マンデー・モンスター・スタック【懸賞金編 $150 $150,000
7月8日 18:00 15ドル ミニ・マンデー・モンスター・スタック【バウンティ・エディション $15 $75,000
7月8日 19:30 32 賞金王 $32 $70,000
7月8日 19:40 525ドル オマホリック・バウンティ・フィフティ・スタック $525 $12,500
7月8日 19:40 54ドル オマホリック・バウンティ・フィフティ・スタック $54 $15,000
7月8日 21:00 215ドル デイリーHEATER 【賞金ターボ $215 $50,000
7月8日 22:00 66ドル スーパーシックス【賞金ターボ $66 $40,000
7月8日 22:30 25ドル ハイパー5マックス $25 $25,000
7月9日 0:00 88ドル ミッドナイト・マッドネス [バウンティ・ハイパー] $88 $40,000
7月9日 1:05 $10 Speed Racer POWER HOUR [10 BB] $10 $5,000
7月9日 1:15 $25 Speed Racer POWER HOUR [10 BB] $25 $7,000
7月9日 1:25 $50 Speed Racer POWER HOUR [10 BB] $50 $6,000
7月9日 1:35 $100 Speed Racer POWER HOUR [10 BB] $100 $7,000
7月9日 1:45 $200 Speed Racer POWER HOUR [10 BB] $200 $7,000
7月9日 13:30 $10.80 バウンティ・ハンターズ6-マックス $10.80 $35,000
7月9日 14:05 $10 Speed Racer POWER HOUR [10 BB] $10 $12,500
7月9日 14:15 $25 Speed Racer POWER HOUR [10 BB] $25 $12,500
7月9日 14:25 $50 Speed Racer POWER HOUR [10 BB] $50 $12,500
7月9日 14:35 $100 Speed Racer POWER HOUR [10 BB] $100 $10,000
7月9日 14:45 $200 Speed Racer POWER HOUR [10 BB] $200 $12,500
7月9日 16:30 525ドル賞金稼ぎHR【ディープスタック $525 $200,000
7月9日 16:30 54ドル賞金稼ぎデイリーメイン【ディープスタック $54 $250,000
7月9日 18:00 1050ドル チューズデー・クラシックHR【バウンティ・エディション $1,050 $150,000
7月9日 18:00 150ドル チューズデー・クラシック【バウンティ・エディション $150 $200,000
7月9日 18:00 15ドル ミニ・チューズデー・クラシック【バウンティ・エディション $15 $85,000
7月10日 水曜日 1:05 $10 Speed Racer POWER HOUR [10 BB] $10 $5,000
7月10日 水曜日 1:15 $25 Speed Racer POWER HOUR [10 BB] $25 $7,000
7月10日 水曜日 1:25 $50 Speed Racer POWER HOUR [10 BB] $50 $6,000
7月10日 水曜日 1:35 $100 Speed Racer POWER HOUR [10 BB] $100 $7,000
7月10日 水曜日 1:45 $200 Speed Racer POWER HOUR [10 BB] $200 $7,000
7月10日 水曜日 13:30 $10.80 バウンティ・ハンターズ6-マックス $10.80 $35,000
7月10日 水曜日 14:05 $10 Speed Racer POWER HOUR [10 BB] $10 $12,500
7月10日 水曜日 14:15 $25 Speed Racer POWER HOUR [10 BB] $25 $12,500
7月10日 水曜日 14:25 $50 Speed Racer POWER HOUR [10 BB] $50 $12,500
7月10日 水曜日 14:35 $100 Speed Racer POWER HOUR [10 BB] $100 $10,000
7月10日 水曜日 14:45 $200 Speed Racer POWER HOUR [10 BB] $200 $12,500
7月10日 水曜日 16:30 525ドル 賞金稼ぎHR【ダブルスタック $525 $200,000
7月10日 水曜日 16:30 54ドル賞金稼ぎデイリーメイン【ダブルスタック $54 $250,000
7月10日 水曜日 18:00 1050ドル ウェンズデーワンダーボックスHR [ミステリーバウンティ] $1,050 $200,000
7月10日 水曜日 18:00 150ドル ウェンズデーワンダーボックス [ミステリーバウンティ] $150 $400,000
7月10日 水曜日 18:00 15ドル ミニ・ウェンズデー・ワンダーボックス 【ミステリー・バウンティ $15 $200,000
7月11日 1:05 $10 Speed Racer POWER HOUR [10 BB] $10 $5,000
7月11日 1:15 $25 Speed Racer POWER HOUR [10 BB] $25 $7,000
7月11日 1:25 $50 Speed Racer POWER HOUR [10 BB] $50 $6,000
7月11日 1:35 $100 Speed Racer POWER HOUR [10 BB] $100 $7,000
7月11日 1:45 $200 Speed Racer POWER HOUR [10 BB] $200 $7,000
7月11日 13:30 $10.80 バウンティ・ハンターズ6-マックス $10.80 $35,000
7月11日 14:05 $10 Speed Racer POWER HOUR [10 BB] $10 $12,500
7月11日 14:15 $25 Speed Racer POWER HOUR [10 BB] $25 $12,500
7月11日 14:25 $50 Speed Racer POWER HOUR [10 BB] $50 $12,500
7月11日 14:35 $100 Speed Racer POWER HOUR [10 BB] $100 $10,000
7月11日 14:45 $200 Speed Racer POWER HOUR [10 BB] $200 $12,500
7月11日 16:30 525ドル バウンティ・ハンターズHR [クラシック] $525 $300,000
7月11日 16:30 54ドル Bounty Hunters デイリー・メイン [クラシック] $54 $250,000
7月11日 18:00 1050ドル 木曜スローダウンHR $1,050 $300,000
7月11日 18:00 150ドル 木曜スローダウン $150 $200,000
7月11日 18:00 15ドル ミニ木曜対決 $15 $85,000
7月12日 1:05 $10 Speed Racer POWER HOUR [10 BB] $10 $5,000
7月12日 1:15 $25 Speed Racer POWER HOUR [10 BB] $25 $7,000
7月12日 1:25 $50 Speed Racer POWER HOUR [10 BB] $50 $6,000
7月12日 1:35 $100 Speed Racer POWER HOUR [10 BB] $100 $7,000
7月12日 1:45 $200 Speed Racer POWER HOUR [10 BB] $200 $7,000
7月12日 13:30 $10.80 猛烈な金曜日5-マックス $10.80 $30,000
7月12日 14:05 $10 Speed Racer POWER HOUR [10 BB] $10 $12,500
7月12日 14:15 $25 Speed Racer POWER HOUR [10 BB] $25 $12,500
7月12日 14:25 $50 Speed Racer POWER HOUR [10 BB] $50 $12,500
7月12日 14:35 $100 Speed Racer POWER HOUR [10 BB] $100 $10,000
7月12日 14:45 $200 Speed Racer POWER HOUR [10 BB] $200 $12,500
7月12日 16:30 525ドル 賞金稼ぎHR【ウルトラディープ・ターボ $525 $100,000
7月12日 16:30 54ドル賞金稼ぎデイリーメイン【ウルトラディープターボ $54 $150,000
7月12日 18:00 1050ドル フライデー・ナイト・ファイトHR【6-マックス $1,050 $150,000
7月12日 18:00 150ドル フライデー・ナイト・ファイト [6-Max] $150 $125,000
7月12日 18:00 15ドル ミニ・フライデー・ナイト・ファイト [6-Max] $15 $75,000
7月13日 1:05 $10 Speed Racer POWER HOUR [10 BB] $10 $5,000
7月13日 1:15 $25 Speed Racer POWER HOUR [10 BB] $25 $7,000
7月13日 1:25 $50 Speed Racer POWER HOUR [10 BB] $50 $6,000
7月13日 1:35 $100 Speed Racer POWER HOUR [10 BB] $100 $7,000
7月13日 1:45 $200 Speed Racer POWER HOUR [10 BB] $200 $7,000
7月13日 13:30 $10.80 サタデー・ショーダウン7-マックス $10.80 $40,000
7月13日 14:05 $10 Speed Racer POWER HOUR [10 BB] $10 $12,500
7月13日 14:15 $25 Speed Racer POWER HOUR [10 BB] $25 $12,500
7月13日 14:25 $50 Speed Racer POWER HOUR [10 BB] $50 $12,500
7月13日 14:35 $100 Speed Racer POWER HOUR [10 BB] $100 $10,000
7月13日 14:45 $200 Speed Racer POWER HOUR [10 BB] $200 $12,500
7月13日 16:30 525ドル 賞金稼ぎHR【ビッグバウンティ $525 $200,000
7月13日 16:30 54ドル 賞金稼ぎデイリーメイン【ビッグバウンティ $54 $250,000
7月13日 18:00 1050ドル サタデーシークレットKO HR 【ミステリーバウンティ $1,050 $250,000
7月13日 18:00 150ドル サタデーシークレットKO【ミステリーバウンティ $150 $500,000
7月13日 18:00 15ドル ミニサタデーシークレットKO [ミステリーバウンティ] $15 $250,000
7月14日 1:05 $10 Speed Racer POWER HOUR [10 BB] $10 $5,000
7月14日 1:15 $25 Speed Racer POWER HOUR [10 BB] $25 $7,000
7月14日 1:25 $50 Speed Racer POWER HOUR [10 BB] $50 $6,000
7月14日 1:35 $100 Speed Racer POWER HOUR [10 BB] $100 $7,000
7月14日 1:45 $200 Speed Racer POWER HOUR [10 BB] $200 $7,000
7月14日 12:30 $215 Sunday Bounty Blast-Off $215 $35,000
7月14日 12:30 $25 Sunday Bounty Blast-Off $25 $100,000
7月14日 13:30 $10.80 Sunday Bounty Seven-Max $10.80 $50,000
7月14日 13:30 $108 Sunday Bounty Seven-Max $108 $70,000
7月14日 14:05 $10 Speed Racer POWER HOUR [10 BB] $10 $12,500
7月14日 14:15 $25 Speed Racer POWER HOUR [10 BB] $25 $12,500
7月14日 14:25 $50 Speed Racer POWER HOUR [10 BB] $50 $12,500
7月14日 14:30 $840 Sunday Bounty Warm-Up HR $840 $75,000
7月14日 14:30 $88 Sunday Bounty Warm-Up $88 $175,000
7月14日 14:35 $100 Speed Racer POWER HOUR [10 BB] $100 $10,000
7月14日 14:45 $200 Speed Racer POWER HOUR [10 BB] $200 $12,500
7月14日 15:30 $44 Sunday Bounty Forty Stack $44 $200,000
7月14日 16:30 $525 Bounty Hunters HR Main Event, $1M GTD $525 $1,000,000
7月14日 16:30 $54 Bounty Hunters Sunday Main Event $54 $500,000
7月14日 17:30 $215 Sunday Bounty Big Game $215 $350,000
7月14日 17:30 $21.60 Sunday Bounty Big Game $21.60 $200,000
7月14日 17:40 215ドル 日曜オマホリック・ビッグゲーム $215 $50,000
7月14日 19:00 1,050ドル・サンデーHRメインイベント【バウンティ編 $1,050 $300,000
7月14日 19:30 320ドル GGMマスターズ バウンティ スペシャル・エディション $320 $400,000
7月14日 19:30 32ドル 日曜賞金王 $32 $175,000
7月14日 19:40 1050ドル 日曜オマホリック賞金HR $1,050 $50,000
7月14日 19:40 150ドル サンデー・オマホリック・バウンティー・メイン $150 $100,000
7月14日 20:00 108ドル・サンデー・ショーダウン [ミステリー・バウンティ] $108 $400,000
7月14日 20:00 15ドル ミニ対決 [謎の懸賞金] $15 $250,000
7月14日 21:00 1050ドル サンデーHEATER HR 【賞金ターボ $1,050 $75,000
7月14日 21:00 215ドルサンデーHEATER【賞金ターボ $215 $125,000
7月14日 21:00 25ドル サンデーミニHEATER 【賞金ターボ $25 $100,000
7月14日 22:30 77ドル ラッキーセブンズ【賞金ターボ $77 $125,000
7月14日 23:30 215ドル サンデー・ラスト・コール 【バウンティ・ハイパー $215 $60,000
7月15日 0:00 88ドル ミッドナイト・マッドネス [バウンティ・ハイパー] $88 $40,000
7月15日 1:05 $10 Speed Racer POWER HOUR [10 BB] $10 $5,000
7月15日 1:15 $25 Speed Racer POWER HOUR [10 BB] $25 $7,000
7月15日 1:25 $50 Speed Racer POWER HOUR [10 BB] $50 $6,000
7月15日 1:35 $100 Speed Racer POWER HOUR [10 BB] $100 $7,000
7月15日 1:45 $200 Speed Racer POWER HOUR [10 BB] $200 $7,000
7月15日 12:30 25ドル・バウンティ・ブラストオフ $25 $50,000
7月15日 13:30 $10.80 マンデー・ハングオーバー [レベル可変] $10.80 $30,000
7月15日 14:05 $10 Speed Racer POWER HOUR [10 BB] $10 $12,500
7月15日 14:15 $25 Speed Racer POWER HOUR [10 BB] $25 $12,500
7月15日 14:25 $50 Speed Racer POWER HOUR [10 BB] $50 $12,500
7月15日 14:30 88ドル バウンティ・ウォームアップ $88 $60,000
7月15日 14:35 $100 Speed Racer POWER HOUR [10 BB] $100 $10,000
7月15日 14:45 $200 Speed Racer POWER HOUR [10 BB] $200 $12,500
7月15日 15:30 44ドル バウンティ・フォーティ・スタック $44 $80,000
7月15日 16:30 525ドル 賞金稼ぎHR【6-MAX $525 $300,000
7月15日 16:30 54ドル賞金稼ぎデイリー・メイン[6マックス] $54 $250,000
7月15日 17:30 賞金総額215ドルのビッグゲーム $215 $150,000
7月15日 17:30 25ドル バウンティ・ビッグゲーム $25 $100,000
7月15日 18:00 1050ドルのマンデー・モンスター・スタックHR【懸賞金版 $1,050 $200,000
7月15日 18:00 150ドル・マンデー・モンスター・スタック【懸賞金編 $150 $150,000
7月15日 18:00 15ドル ミニ・マンデー・モンスター・スタック【バウンティ・エディション $15 $75,000
7月15日 19:30 32 賞金王 $32 $70,000
7月15日 19:40 525ドル オマホリック・バウンティ・フィフティ・スタック $525 $12,500
7月15日 19:40 54ドル オマホリック・バウンティ・フィフティ・スタック $54 $15,000
7月15日 21:00 215ドル デイリーHEATER 【賞金ターボ $215 $50,000
7月15日 22:00 66ドル スーパーシックス【賞金ターボ $66 $40,000
7月15日 22:30 25ドル ハイパー5マックス $25 $25,000
7月16日 0:00 88ドル ミッドナイト・マッドネス [バウンティ・ハイパー] $88 $40,000
7月16日 1:05 $10 Speed Racer POWER HOUR [10 BB] $10 $5,000
7月16日 1:15 $25 Speed Racer POWER HOUR [10 BB] $25 $7,000
7月16日 1:25 $50 Speed Racer POWER HOUR [10 BB] $50 $6,000
7月16日 1:35 $100 Speed Racer POWER HOUR [10 BB] $100 $7,000
7月16日 1:45 $200 Speed Racer POWER HOUR [10 BB] $200 $7,000
7月16日 13:30 $10.80 バウンティ・ハンターズ6-マックス $10.80 $35,000
7月16日 14:05 $10 Speed Racer POWER HOUR [10 BB] $10 $12,500
7月16日 14:15 $25 Speed Racer POWER HOUR [10 BB] $25 $12,500
7月16日 14:25 $50 Speed Racer POWER HOUR [10 BB] $50 $12,500
7月16日 14:35 $100 Speed Racer POWER HOUR [10 BB] $100 $10,000
7月16日 14:45 $200 Speed Racer POWER HOUR [10 BB] $200 $12,500
7月16日 16:30 525ドル賞金稼ぎHR【ディープスタック $525 $200,000
7月16日 16:30 54ドル賞金稼ぎデイリーメイン【ディープスタック $54 $250,000
7月16日 18:00 1050ドル チューズデー・クラシックHR【バウンティ・エディション $1,050 $150,000
7月16日 18:00 150ドル チューズデー・クラシック【バウンティ・エディション $150 $200,000
7月16日 18:00 15ドル ミニ・チューズデー・クラシック【バウンティ・エディション $15 $85,000
7月17日 水曜日 1:05 $10 Speed Racer POWER HOUR [10 BB] $10 $5,000
7月17日 水曜日 1:15 $25 Speed Racer POWER HOUR [10 BB] $25 $7,000
7月17日 水曜日 1:25 $50 Speed Racer POWER HOUR [10 BB] $50 $6,000
7月17日 水曜日 1:35 $100 Speed Racer POWER HOUR [10 BB] $100 $7,000
7月17日 水曜日 1:45 $200 Speed Racer POWER HOUR [10 BB] $200 $7,000
7月17日 水曜日 13:30 $10.80 バウンティ・ハンターズ6-マックス $10.80 $35,000
7月17日 水曜日 14:05 $10 Speed Racer POWER HOUR [10 BB] $10 $12,500
7月17日 水曜日 14:15 $25 Speed Racer POWER HOUR [10 BB] $25 $12,500
7月17日 水曜日 14:25 $50 Speed Racer POWER HOUR [10 BB] $50 $12,500
7月17日 水曜日 14:35 $100 Speed Racer POWER HOUR [10 BB] $100 $10,000
7月17日 水曜日 14:45 $200 Speed Racer POWER HOUR [10 BB] $200 $12,500
7月17日 水曜日 16:30 525ドル 賞金稼ぎHR【ダブルスタック $525 $200,000
7月17日 水曜日 16:30 54ドル賞金稼ぎデイリーメイン【ダブルスタック $54 $250,000
7月17日 水曜日 18:00 1050ドル ウェンズデーワンダーボックスHR [ミステリーバウンティ] $1,050 $200,000
7月17日 水曜日 18:00 150ドル ウェンズデーワンダーボックス [ミステリーバウンティ] $150 $400,000
7月17日 水曜日 18:00 15ドル ミニ・ウェンズデー・ワンダーボックス 【ミステリー・バウンティ $15 $200,000
7月18日 1:05 $10 Speed Racer POWER HOUR [10 BB] $10 $5,000
7月18日 1:15 $25 Speed Racer POWER HOUR [10 BB] $25 $7,000
7月18日 1:25 $50 Speed Racer POWER HOUR [10 BB] $50 $6,000
7月18日 1:35 $100 Speed Racer POWER HOUR [10 BB] $100 $7,000
7月18日 1:45 $200 Speed Racer POWER HOUR [10 BB] $200 $7,000
7月18日 13:30 $10.80 バウンティ・ハンターズ6-マックス $10.80 $35,000
7月18日 14:05 $10 Speed Racer POWER HOUR [10 BB] $10 $12,500
7月18日 14:15 $25 Speed Racer POWER HOUR [10 BB] $25 $12,500
7月18日 14:25 $50 Speed Racer POWER HOUR [10 BB] $50 $12,500
7月18日 14:35 $100 Speed Racer POWER HOUR [10 BB] $100 $10,000
7月18日 14:45 $200 Speed Racer POWER HOUR [10 BB] $200 $12,500
7月18日 16:30 525ドル バウンティ・ハンターズHR [クラシック] $525 $300,000
7月18日 16:30 54ドル Bounty Hunters デイリー・メイン [クラシック] $54 $250,000
7月18日 18:00 1050ドル 木曜スローダウンHR $1,050 $300,000
7月18日 18:00 150ドル 木曜スローダウン $150 $200,000
7月18日 18:00 15ドル ミニ木曜対決 $15 $85,000
7月19日 1:05 $10 Speed Racer POWER HOUR [10 BB] $10 $5,000
7月19日 1:15 $25 Speed Racer POWER HOUR [10 BB] $25 $7,000
7月19日 1:25 $50 Speed Racer POWER HOUR [10 BB] $50 $6,000
7月19日 1:35 $100 Speed Racer POWER HOUR [10 BB] $100 $7,000
7月19日 1:45 $200 Speed Racer POWER HOUR [10 BB] $200 $7,000
7月19日 13:30 $10.80 猛烈な金曜日5-マックス $10.80 $30,000
7月19日 14:05 $10 Speed Racer POWER HOUR [10 BB] $10 $12,500
7月19日 14:15 $25 Speed Racer POWER HOUR [10 BB] $25 $12,500
7月19日 14:25 $50 Speed Racer POWER HOUR [10 BB] $50 $12,500
7月19日 14:35 $100 Speed Racer POWER HOUR [10 BB] $100 $10,000
7月19日 14:45 $200 Speed Racer POWER HOUR [10 BB] $200 $12,500
7月19日 16:30 525ドル 賞金稼ぎHR【ウルトラディープ・ターボ $525 $100,000
7月19日 16:30 54ドル賞金稼ぎデイリーメイン【ウルトラディープターボ $54 $150,000
7月19日 18:00 1050ドル フライデー・ナイト・ファイトHR【6-マックス $1,050 $150,000
7月19日 18:00 150ドル フライデー・ナイト・ファイト [6-Max] $150 $125,000
7月19日 18:00 15ドル ミニ・フライデー・ナイト・ファイト [6-Max] $15 $75,000
7月20日 1:05 $10 Speed Racer POWER HOUR [10 BB] $10 $5,000
7月20日 1:15 $25 Speed Racer POWER HOUR [10 BB] $25 $7,000
7月20日 1:25 $50 Speed Racer POWER HOUR [10 BB] $50 $6,000
7月20日 1:35 $100 Speed Racer POWER HOUR [10 BB] $100 $7,000
7月20日 1:45 $200 Speed Racer POWER HOUR [10 BB] $200 $7,000
7月20日 13:30 $10.80 サタデー・ショーダウン7-マックス $10.80 $40,000
7月20日 14:05 $10 Speed Racer POWER HOUR [10 BB] $10 $12,500
7月20日 14:15 $25 Speed Racer POWER HOUR [10 BB] $25 $12,500
7月20日 14:25 $50 Speed Racer POWER HOUR [10 BB] $50 $12,500
7月20日 14:35 $100 Speed Racer POWER HOUR [10 BB] $100 $10,000
7月20日 14:45 $200 Speed Racer POWER HOUR [10 BB] $200 $12,500
7月20日 16:30 525ドル 賞金稼ぎHR【ビッグバウンティ $525 $200,000
7月20日 16:30 54ドル 賞金稼ぎデイリーメイン【ビッグバウンティ $54 $250,000
7月20日 18:00 1050ドル サタデーシークレットKO HR 【ミステリーバウンティ $1,050 $250,000
7月20日 18:00 150ドル サタデーシークレットKO【ミステリーバウンティ $150 $500,000
7月20日 18:00 15ドル ミニサタデーシークレットKO [ミステリーバウンティ] $15 $250,000
7月21日 1:05 $10 Speed Racer POWER HOUR [10 BB] $10 $5,000
7月21日 1:15 $25 Speed Racer POWER HOUR [10 BB] $25 $7,000
7月21日 1:25 $50 Speed Racer POWER HOUR [10 BB] $50 $6,000
7月21日 1:35 $100 Speed Racer POWER HOUR [10 BB] $100 $7,000
7月21日 1:45 $200 Speed Racer POWER HOUR [10 BB] $200 $7,000
7月21日 12:30 $215 Sunday Bounty Blast-Off $215 $35,000
7月21日 12:30 $25 Sunday Bounty Blast-Off $25 $100,000
7月21日 13:30 $10.80 Sunday Bounty Seven-Max $10.80 $50,000
7月21日 13:30 $108 Sunday Bounty Seven-Max $108 $70,000
7月21日 14:05 $10 Speed Racer POWER HOUR [10 BB] $10 $12,500
7月21日 14:15 $25 Speed Racer POWER HOUR [10 BB] $25 $12,500
7月21日 14:25 $50 Speed Racer POWER HOUR [10 BB] $50 $12,500
7月21日 14:30 $840 Sunday Bounty Warm-Up HR $840 $75,000
7月21日 14:30 $88 Sunday Bounty Warm-Up $88 $175,000
7月21日 14:35 $100 Speed Racer POWER HOUR [10 BB] $100 $10,000
7月21日 14:45 $200 Speed Racer POWER HOUR [10 BB] $200 $12,500
7月21日 15:30 $44 Sunday Bounty Forty Stack $44 $200,000
7月21日 16:30 $525 Bounty Hunters HR Main Event, $1M GTD $525 $1,000,000
7月21日 16:30 $54 Bounty Hunters Sunday Main Event $54 $500,000
7月21日 17:30 $215 Sunday Bounty Big Game $215 $350,000
7月21日 17:30 $21.60 Sunday Bounty Big Game $21.60 $200,000
7月21日 17:40 215ドル 日曜オマホリック・ビッグゲーム $215 $50,000
7月21日 19:00 1,050ドル・サンデーHRメインイベント【バウンティ編 $1,050 $300,000
7月21日 19:30 320ドル GGMマスターズ バウンティ スペシャル・エディション $320 $400,000
7月21日 19:30 32ドル 日曜賞金王 $32 $175,000
7月21日 19:40 1050ドル 日曜オマホリック賞金HR $1,050 $50,000
7月21日 19:40 150ドル サンデー・オマホリック・バウンティー・メイン $150 $100,000
7月21日 20:00 108ドル・サンデー・ショーダウン [ミステリー・バウンティ] $108 $400,000
7月21日 20:00 15ドル ミニ対決 [謎の懸賞金] $15 $250,000
7月21日 20:30 グローバル・ミリオン$懸賞金版、$1M GTD【ファイナルステージ $50 $1,000,000
7月21日 21:00 1050ドル サンデーHEATER HR 【賞金ターボ $1,050 $75,000
7月21日 21:00 215ドルサンデーHEATER【賞金ターボ $215 $125,000
7月21日 21:00 25ドル サンデーミニHEATER 【賞金ターボ $25 $100,000
7月21日 22:30 77ドル ラッキーセブンズ【賞金ターボ $77 $125,000
7月21日 23:30 215ドル サンデー・ラスト・コール 【バウンティ・ハイパー $215 $60,000
7月22日 0:00 88ドル ミッドナイト・マッドネス [バウンティ・ハイパー] $88 $40,000
7月22日 1:05 $10 Speed Racer POWER HOUR [10 BB] $10 $5,000
7月22日 1:15 $25 Speed Racer POWER HOUR [10 BB] $25 $7,000
7月22日 1:25 $50 Speed Racer POWER HOUR [10 BB] $50 $6,000
7月22日 1:35 $100 Speed Racer POWER HOUR [10 BB] $100 $7,000
7月22日 1:45 $200 Speed Racer POWER HOUR [10 BB] $200 $7,000
7月22日 12:30 25ドル・バウンティ・ブラストオフ $25 $50,000
7月22日 13:30 $10.80 マンデー・ハングオーバー [レベル可変] $10.80 $30,000
7月22日 14:05 $10 Speed Racer POWER HOUR [10 BB] $10 $12,500
7月22日 14:15 $25 Speed Racer POWER HOUR [10 BB] $25 $12,500
7月22日 14:25 $50 Speed Racer POWER HOUR [10 BB] $50 $12,500
7月22日 14:30 88ドル バウンティ・ウォームアップ $88 $60,000
7月22日 14:35 $100 Speed Racer POWER HOUR [10 BB] $100 $10,000
7月22日 14:45 $200 Speed Racer POWER HOUR [10 BB] $200 $12,500
7月22日 15:30 44ドル バウンティ・フォーティ・スタック $44 $80,000
7月22日 16:30 525ドル 賞金稼ぎHR【6-MAX $525 $300,000
7月22日 16:30 54ドル賞金稼ぎデイリー・メイン[6マックス] $54 $250,000
7月22日 17:30 賞金総額215ドルのビッグゲーム $215 $150,000
7月22日 17:30 25ドル バウンティ・ビッグゲーム $25 $100,000
7月22日 18:00 1050ドルのマンデー・モンスター・スタックHR【懸賞金版 $1,050 $200,000
7月22日 18:00 150ドル・マンデー・モンスター・スタック【懸賞金編 $150 $150,000
7月22日 18:00 15ドル ミニ・マンデー・モンスター・スタック【バウンティ・エディション $15 $75,000
7月22日 19:30 32 賞金王 $32 $70,000
7月22日 19:40 525ドル オマホリック・バウンティ・フィフティ・スタック $525 $12,500
7月22日 19:40 54ドル オマホリック・バウンティ・フィフティ・スタック $54 $15,000
7月22日 21:00 215ドル デイリーHEATER 【賞金ターボ $215 $50,000
7月22日 22:00 66ドル スーパーシックス【賞金ターボ $66 $40,000
7月22日 22:30 25ドル ハイパー5マックス $25 $25,000
7月23日 0:00 88ドル ミッドナイト・マッドネス [バウンティ・ハイパー] $88 $40,000
7月23日 1:05 $10 Speed Racer POWER HOUR [10 BB] $10 $5,000
7月23日 1:15 $25 Speed Racer POWER HOUR [10 BB] $25 $7,000
7月23日 1:25 $50 Speed Racer POWER HOUR [10 BB] $50 $6,000
7月23日 1:35 $100 Speed Racer POWER HOUR [10 BB] $100 $7,000
7月23日 1:45 $200 Speed Racer POWER HOUR [10 BB] $200 $7,000
7月23日 13:30 $10.80 バウンティ・ハンターズ6-マックス $10.80 $35,000
7月23日 14:05 $10 Speed Racer POWER HOUR [10 BB] $10 $12,500
7月23日 14:15 $25 Speed Racer POWER HOUR [10 BB] $25 $12,500
7月23日 14:25 $50 Speed Racer POWER HOUR [10 BB] $50 $12,500
7月23日 14:35 $100 Speed Racer POWER HOUR [10 BB] $100 $10,000
7月23日 14:45 $200 Speed Racer POWER HOUR [10 BB] $200 $12,500
7月23日 16:30 525ドル賞金稼ぎHR【ディープスタック $525 $200,000
7月23日 16:30 54ドル賞金稼ぎデイリーメイン【ディープスタック $54 $250,000
7月23日 18:00 1050ドル チューズデー・クラシックHR【バウンティ・エディション $1,050 $150,000
7月23日 18:00 150ドル チューズデー・クラシック【バウンティ・エディション $150 $200,000
7月23日 18:00 15ドル ミニ・チューズデー・クラシック【バウンティ・エディション $15 $85,000
7月24日 水曜日 1:05 $10 Speed Racer POWER HOUR [10 BB] $10 $5,000
7月24日 水曜日 1:15 $25 Speed Racer POWER HOUR [10 BB] $25 $7,000
7月24日 水曜日 1:25 $50 Speed Racer POWER HOUR [10 BB] $50 $6,000
7月24日 水曜日 1:35 $100 Speed Racer POWER HOUR [10 BB] $100 $7,000
7月24日 水曜日 1:45 $200 Speed Racer POWER HOUR [10 BB] $200 $7,000
7月24日 水曜日 13:30 $10.80 バウンティ・ハンターズ6-マックス $10.80 $35,000
7月24日 水曜日 14:05 $10 Speed Racer POWER HOUR [10 BB] $10 $12,500
7月24日 水曜日 14:15 $25 Speed Racer POWER HOUR [10 BB] $25 $12,500
7月24日 水曜日 14:25 $50 Speed Racer POWER HOUR [10 BB] $50 $12,500
7月24日 水曜日 14:35 $100 Speed Racer POWER HOUR [10 BB] $100 $10,000
7月24日 水曜日 14:45 $200 Speed Racer POWER HOUR [10 BB] $200 $12,500
7月24日 水曜日 16:30 525ドル 賞金稼ぎHR【ダブルスタック $525 $200,000
7月24日 水曜日 16:30 54ドル賞金稼ぎデイリーメイン【ダブルスタック $54 $250,000
7月24日 水曜日 18:00 1050ドル ウェンズデーワンダーボックスHR [ミステリーバウンティ] $1,050 $200,000
7月24日 水曜日 18:00 150ドル ウェンズデーワンダーボックス [ミステリーバウンティ] $150 $400,000
7月24日 水曜日 18:00 15ドル ミニ・ウェンズデー・ワンダーボックス 【ミステリー・バウンティ $15 $200,000
7月25日 1:05 $10 Speed Racer POWER HOUR [10 BB] $10 $5,000
7月25日 1:15 $25 Speed Racer POWER HOUR [10 BB] $25 $7,000
7月25日 1:25 $50 Speed Racer POWER HOUR [10 BB] $50 $6,000
7月25日 1:35 $100 Speed Racer POWER HOUR [10 BB] $100 $7,000
7月25日 1:45 $200 Speed Racer POWER HOUR [10 BB] $200 $7,000
7月25日 13:30 $10.80 バウンティ・ハンターズ6-マックス $10.80 $35,000
7月25日 14:05 $10 Speed Racer POWER HOUR [10 BB] $10 $12,500
7月25日 14:15 $25 Speed Racer POWER HOUR [10 BB] $25 $12,500
7月25日 14:25 $50 Speed Racer POWER HOUR [10 BB] $50 $12,500
7月25日 14:35 $100 Speed Racer POWER HOUR [10 BB] $100 $10,000
7月25日 14:45 $200 Speed Racer POWER HOUR [10 BB] $200 $12,500
7月25日 16:30 525ドル バウンティ・ハンターズHR [クラシック] $525 $300,000
7月25日 16:30 54ドル Bounty Hunters デイリー・メイン [クラシック] $54 $250,000
7月25日 18:00 1050ドル 木曜スローダウンHR $1,050 $300,000
7月25日 18:00 150ドル 木曜スローダウン $150 $200,000
7月25日 18:00 15ドル ミニ木曜対決 $15 $85,000
7月26日 1:05 $10 Speed Racer POWER HOUR [10 BB] $10 $5,000
7月26日 1:15 $25 Speed Racer POWER HOUR [10 BB] $25 $7,000
7月26日 1:25 $50 Speed Racer POWER HOUR [10 BB] $50 $6,000
7月26日 1:35 $100 Speed Racer POWER HOUR [10 BB] $100 $7,000
7月26日 1:45 $200 Speed Racer POWER HOUR [10 BB] $200 $7,000
7月26日 13:30 $10.80 猛烈な金曜日5-マックス $10.80 $30,000
7月26日 14:05 $10 Speed Racer POWER HOUR [10 BB] $10 $12,500
7月26日 14:15 $25 Speed Racer POWER HOUR [10 BB] $25 $12,500
7月26日 14:25 $50 Speed Racer POWER HOUR [10 BB] $50 $12,500
7月26日 14:35 $100 Speed Racer POWER HOUR [10 BB] $100 $10,000
7月26日 14:45 $200 Speed Racer POWER HOUR [10 BB] $200 $12,500
7月26日 16:30 525ドル 賞金稼ぎHR【ウルトラディープ・ターボ $525 $100,000
7月26日 16:30 54ドル賞金稼ぎデイリーメイン【ウルトラディープターボ $54 $150,000
7月26日 18:00 1050ドル フライデー・ナイト・ファイトHR【6-マックス $1,050 $150,000
7月26日 18:00 150ドル フライデー・ナイト・ファイト [6-Max] $150 $125,000
7月26日 18:00 15ドル ミニ・フライデー・ナイト・ファイト [6-Max] $15 $75,000
7月27日 1:05 $10 Speed Racer POWER HOUR [10 BB] $10 $5,000
7月27日 1:15 $25 Speed Racer POWER HOUR [10 BB] $25 $7,000
7月27日 1:25 $50 Speed Racer POWER HOUR [10 BB] $50 $6,000
7月27日 1:35 $100 Speed Racer POWER HOUR [10 BB] $100 $7,000
7月27日 1:45 $200 Speed Racer POWER HOUR [10 BB] $200 $7,000
7月27日 13:30 $10.80 サタデー・ショーダウン7-マックス $10.80 $40,000
7月27日 14:05 $10 Speed Racer POWER HOUR [10 BB] $10 $12,500
7月27日 14:15 $25 Speed Racer POWER HOUR [10 BB] $25 $12,500
7月27日 14:25 $50 Speed Racer POWER HOUR [10 BB] $50 $12,500
7月27日 14:35 $100 Speed Racer POWER HOUR [10 BB] $100 $10,000
7月27日 14:45 $200 Speed Racer POWER HOUR [10 BB] $200 $12,500
7月27日 16:30 525ドル 賞金稼ぎHR【ビッグバウンティ $525 $200,000
7月27日 16:30 54ドル 賞金稼ぎデイリーメイン【ビッグバウンティ $54 $250,000
7月27日 18:00 1050ドル サタデーシークレットKO HR 【ミステリーバウンティ $1,050 $250,000
7月27日 18:00 150ドル サタデーシークレットKO【ミステリーバウンティ $150 $500,000
7月27日 18:00 15ドル ミニサタデーシークレットKO [ミステリーバウンティ] $15 $250,000
7月28日 1:05 $10 Speed Racer POWER HOUR [10 BB] $10 $5,000
7月28日 1:15 $25 Speed Racer POWER HOUR [10 BB] $25 $7,000
7月28日 1:25 $50 Speed Racer POWER HOUR [10 BB] $50 $6,000
7月28日 1:35 $100 Speed Racer POWER HOUR [10 BB] $100 $7,000
7月28日 1:45 $200 Speed Racer POWER HOUR [10 BB] $200 $7,000
7月28日 12:30 $215 Sunday Bounty Blast-Off $215 $35,000
7月28日 12:30 $25 Sunday Bounty Blast-Off $25 $100,000
7月28日 13:30 $10.80 Sunday Bounty Seven-Max $10.80 $50,000
7月28日 13:30 $108 Sunday Bounty Seven-Max $108 $70,000
7月28日 14:05 $10 Speed Racer POWER HOUR [10 BB] $10 $12,500
7月28日 14:15 $25 Speed Racer POWER HOUR [10 BB] $25 $12,500
7月28日 14:25 $50 Speed Racer POWER HOUR [10 BB] $50 $12,500
7月28日 14:30 $840 Sunday Bounty Warm-Up HR $840 $75,000
7月28日 14:30 $88 Sunday Bounty Warm-Up $88 $175,000
7月28日 14:35 $100 Speed Racer POWER HOUR [10 BB] $100 $10,000
7月28日 14:45 $200 Speed Racer POWER HOUR [10 BB] $200 $12,500
7月28日 15:30 $44 Sunday Bounty Forty Stack $44 $200,000
7月28日 16:30 $525 Bounty Hunters HR Main Event, $1M GTD $525 $1,000,000
7月28日 16:30 $54 Bounty Hunters Sunday Main Event $54 $500,000
7月28日 17:30 $215 Sunday Bounty Big Game $215 $350,000
7月28日 17:30 $21.60 Sunday Bounty Big Game $21.60 $200,000
7月28日 17:40 215ドル 日曜オマホリック・ビッグゲーム $215 $50,000
7月28日 19:00 1,050ドル・サンデーHRメインイベント【バウンティ編 $1,050 $300,000
7月28日 19:30 320ドル GGMマスターズ バウンティ スペシャル・エディション $320 $400,000
7月28日 19:30 32ドル 日曜賞金王 $32 $175,000
7月28日 19:40 1050ドル 日曜オマホリック賞金HR $1,050 $50,000
7月28日 19:40 150ドル サンデー・オマホリック・バウンティー・メイン $150 $100,000
7月28日 20:00 108ドル・サンデー・ショーダウン [ミステリー・バウンティ] $108 $400,000
7月28日 20:00 15ドル ミニ対決 [謎の懸賞金] $15 $250,000
7月28日 21:00 1050ドル サンデーHEATER HR 【賞金ターボ $1,050 $75,000
7月28日 21:00 215ドルサンデーHEATER【賞金ターボ $215 $125,000
7月28日 21:00 25ドル サンデーミニHEATER 【賞金ターボ $25 $100,000
7月28日 22:30 77ドル ラッキーセブンズ【賞金ターボ $77 $125,000
7月28日 23:30 215ドル サンデー・ラスト・コール 【バウンティ・ハイパー $215 $60,000
7月29日 0:00 88ドル ミッドナイト・マッドネス [バウンティ・ハイパー] $88 $40,000
7月29日 1:05 $10 Speed Racer POWER HOUR [10 BB] $10 $5,000
7月29日 1:15 $25 Speed Racer POWER HOUR [10 BB] $25 $7,000
7月29日 1:25 $50 Speed Racer POWER HOUR [10 BB] $50 $6,000
7月29日 1:35 $100 Speed Racer POWER HOUR [10 BB] $100 $7,000
7月29日 1:45 $200 Speed Racer POWER HOUR [10 BB] $200 $7,000
7月29日 12:30 25ドル・バウンティ・ブラストオフ $25 $50,000
7月29日 13:30 $10.80 マンデー・ハングオーバー [レベル可変] $10.80 $30,000
7月29日 14:05 $10 Speed Racer POWER HOUR [10 BB] $10 $12,500
7月29日 14:15 $25 Speed Racer POWER HOUR [10 BB] $25 $12,500
7月29日 14:25 $50 Speed Racer POWER HOUR [10 BB] $50 $12,500
7月29日 14:30 88ドル バウンティ・ウォームアップ $88 $60,000
7月29日 14:35 $100 Speed Racer POWER HOUR [10 BB] $100 $10,000
7月29日 14:45 $200 Speed Racer POWER HOUR [10 BB] $200 $12,500
7月29日 15:30 44ドル バウンティ・フォーティ・スタック $44 $80,000
7月29日 16:30 525ドル 賞金稼ぎHR【6-MAX $525 $300,000
7月29日 16:30 54ドル賞金稼ぎデイリー・メイン[6マックス] $54 $250,000
7月29日 17:30 賞金総額215ドルのビッグゲーム $215 $150,000
7月29日 17:30 25ドル バウンティ・ビッグゲーム $25 $100,000
7月29日 18:00 1050ドルのマンデー・モンスター・スタックHR【懸賞金版 $1,050 $200,000
7月29日 18:00 150ドル・マンデー・モンスター・スタック【懸賞金編 $150 $150,000
7月29日 18:00 15ドル ミニ・マンデー・モンスター・スタック【バウンティ・エディション $15 $75,000
7月29日 18:30 ミステリーミリオン$メインイベント、$4M GTD [2日目] $108 $4,000,000
7月29日 19:30 32 賞金王 $32 $70,000
7月29日 19:40 525ドル オマホリック・バウンティ・フィフティ・スタック $525 $12,500
7月29日 19:40 54ドル オマホリック・バウンティ・フィフティ・スタック $54 $15,000
7月29日 21:00 215ドル デイリーHEATER 【賞金ターボ $215 $50,000
7月29日 22:00 66ドル スーパーシックス【賞金ターボ $66 $40,000
7月29日 22:30 25ドル ハイパー5マックス $25 $25,000
7月30日 0:00 88ドル ミッドナイト・マッドネス [バウンティ・ハイパー] $88 $40,000
7月30日 1:05 $10 Speed Racer POWER HOUR [10 BB] $10 $5,000
7月30日 1:15 $25 Speed Racer POWER HOUR [10 BB] $25 $7,000
7月30日 1:25 $50 Speed Racer POWER HOUR [10 BB] $50 $6,000
7月30日 1:35 $100 Speed Racer POWER HOUR [10 BB] $100 $7,000
7月30日 1:45 $200 Speed Racer POWER HOUR [10 BB] $200 $7,000

トーナメントの詳細及び制限事項

  • バウンティキング・デイリーリーダーボードは、毎日06:00:00~05:59:59(UTC)に実施されます。
  • ポイントはバウンティハンターシリーズのトーナメント中でのみ獲得できます。
  • 同率一位の場合、ポイント合計が最初に達したプレーヤーが勝者となります。ポイントと合計が一緒の場合は、ポイント合計に達した時刻が早い方が勝者となります。

利用契約
  • 参加者は管轄地域によって18歳以上、19歳以上、21歳以上、24歳以上、または24歳以上である必要があります。
  • 賞金もしくは保証額については変更されることがあり、ウェブサイトに記載された金額が最新ではない可能性があります。最新の情報についてはゲームクライアントに記載されている保証額をご確認してください。
  • 当社は、プロモーション、トーナメント、またはゲームの機能を変更または中断する権利を有します。
  • 不正行為が疑われるプレイヤーがいる場合、GGPokerは調査を行い、確認された場合はプレイヤーを除外する権利を有します。
  • 利用規約は、ゲームクライアントに記載されている利用規約に従うものとします。
標準規則が適用されます。
ギャンブルの代償は? 時間通りに止め、責任を持ってプレイしましょう www.begambleaware.org